Flight Track Log - Related Links

Times and Time Zones

All times are in EDT time to prevent confusion due to time zone crossing. See the SWA311 flight status page for this flight to view local times or setup timezone preferences in your user account.

Time Position Orientation Groundspeed Altitude Reporting Facility
EDT Latitude Longitude Course Direction KTS MPH feet Rate Location/Type
Sun 06:32:16 PM 40.4164 -80.1331 164° South 249 287 6,900  Level Cleveland Center
Sun 06:33:16 PM 40.3497 -80.1092 165° South 275 316 10,700 3,250 Climbing Cleveland Center
Sun 06:34:16 PM 40.2642 -80.0797 165° South 289 333 13,400 3,150 Climbing Cleveland Center
Sun 06:35:16 PM 40.1703 -80.0506 167° South 328 377 17,000 3,150 Climbing Cleveland Center
Sun 06:36:00 PM 40.2637 -79.5839 166° South  Level Estimated
Sun 06:36:16 PM 40.0719 -80.0189 166° South 353 406 19,700  Level Cleveland Center
Sun 06:37:00 PM 40.2253 -79.4762 163° South  Level Estimated
Sun 06:37:53 PM 39.9092 -79.9708 167° South 373 429 23,000  Level Washington Center
Sun 06:38:00 PM 40.1869 -79.3686 164° South  Level Estimated
Sun 06:38:53 PM 39.8128 -79.9300 162° South 373 429 23,000  Level Washington Center
Sun 06:39:53 PM 39.7800 -79.7928 107° East 337 388 23,000  Level Washington Center
Sun 06:40:53 PM 39.7558 -79.6483 102° East 373 429 23,000  Level Washington Center
Sun 06:41:53 PM 39.7253 -79.4983 103° East 412 474 23,000  Level Washington Center
Sun 06:42:00 PM 39.7326 -79.5201 103° East  Level Estimated
Sun 06:42:53 PM 39.6969 -79.3483 104° East 423 487 23,000  Level Washington Center
Sun 06:43:53 PM 39.6642 -79.1931 105° East 433 498 23,000  Level Washington Center
Sun 06:44:53 PM 39.6353 -79.0406 104° East 433 498 23,000  Level Washington Center
Sun 06:45:53 PM 39.5983 -78.8692 106° East 442 509 23,000  Level Washington Center
Sun 06:46:53 PM 39.5650 -78.7142 106° East 442 509 23,000 -650 Level Washington Center
Sun 06:47:53 PM 39.5333 -78.5622 105° East 442 509 21,700 -1,900 Descending Washington Center
Sun 06:48:53 PM 39.5036 -78.4131 104° East 442 509 19,200 -2,250 Descending Washington Center
Sun 06:49:53 PM 39.4756 -78.2747 105° East 425 489 17,200 -2,100 Descending Washington Center
Sun 06:50:53 PM 39.4472 -78.1367 105° East 407 468 15,000 -1,150 Descending Washington Center
Sun 06:51:53 PM 39.4308 -78.0150 100° East 393 452 14,900 -100 Descending Washington Center
Sun 06:52:53 PM 39.4336 -77.8808 88° East 377 434 14,800 -550 Descending Washington Center
Sun 06:53:53 PM 39.4381 -77.7439 88° East 372 428 13,800 -1,000 Descending Washington Center
Sun 06:54:53 PM 39.4406 -77.6125 89° East 367 422 12,800 -1,100 Descending Washington Center
Sun 06:55:53 PM 39.4425 -77.4861 89° East 362 417 11,600 -900 Descending Washington Center
Sun 06:56:53 PM 39.4442 -77.3706 89° East 340 391 11,000 -404 Descending Washington Center
Sun 06:57:22 PM 39.4500 -77.3167 82° East 300 345 11,000 -202 Level Potomac TRACON
Sun 06:58:22 PM 39.4667 -77.2000 79° East 299 344 10,700 -810 Descending Potomac TRACON
Sun 06:59:28 PM 39.4833 -77.1000 78° East 290 334 9,300 -1,388 Descending Potomac TRACON
Sun 07:00:23 PM 39.4667 -77.0000 102° East 281 323 7,900 -1,409 Descending Potomac TRACON
Sun 07:01:23 PM 39.4333 -76.9167 117° Southeast 279 321 6,600 -1,550 Descending Potomac TRACON
Sun 07:02:23 PM 39.3667 -76.9000 169° South 267 307 4,800 -1,350 Descending Potomac TRACON
Sun 07:03:23 PM 39.3000 -76.9000 180° South 255 293 3,900 -1,000 Descending Potomac TRACON
Sun 07:04:23 PM 39.2333 -76.8833 169° South 244 281 2,800 -694 Descending Potomac TRACON
Sun 07:05:24 PM 39.2000 -76.8167 123° Southeast 182 209 2,500 -496 Descending Potomac TRACON
Sun 07:06:24 PM 39.1833 -76.7667 113° Southeast 143 165 1,800 -900 Descending Potomac TRACON
Sun 07:07:24 PM 39.1833 -76.7167 90° East 134 154 700 -1,100 Descending Potomac TRACON
Sun 07:09:00 PM 39.1667 -76.6667 150° Southeast  Level FlightAware Approximate
Sun 07:16:00 PM 39.1754 -76.6683 150° Southeast  Level Estimated
Sun 07:17:00 PM 39.1754 -76.6683 150° Southeast  Level Estimated
Sun 07:18:00 PM 39.1754 -76.6683 150° Southeast  Level Estimated

Login

Don't have an account? Register now (free) for customized features, flight alerts, and more!